Time;durP1;ratioP1;P1;durP2;ratioP2;P2;SDS_P1;SDS_P2;PMS_P1;PMS_P2;Temp;Humidity;BMP_temperature;BMP_pressure;BME280_temperature;BME280_humidity;BME280_pressure;Samples;Min_cycle;Max_cycle;Signal;HPM_P1;HPM_P2
2021/09/17 00:02:09;;;;;;;1.53;1.00;;;14.90;98.20;;;;;;4984583;28;20482;-81
2021/09/17 00:04:36;;;;;;;1.50;0.90;;;14.90;98.20;;;;;;4993819;28;20476;-80
2021/09/17 00:07:03;;;;;;;1.53;1.00;;;14.90;98.20;;;;;;4973768;28;20482;-81
2021/09/17 00:09:30;;;;;;;1.57;1.00;;;14.90;98.20;;;;;;4976342;28;20466;-80
2021/09/17 00:11:57;;;;;;;1.50;1.00;;;14.80;98.20;;;;;;4982261;28;20471;-80
2021/09/17 00:14:25;;;;;;;1.50;1.00;;;14.80;98.20;;;;;;4983946;28;20471;-81
2021/09/17 00:16:51;;;;;;;1.50;0.97;;;14.80;98.20;;;;;;4977002;28;20504;-81
2021/09/17 00:19:18;;;;;;;1.50;1.00;;;14.80;98.20;;;;;;4974534;28;20466;-80
2021/09/17 00:21:45;;;;;;;1.53;1.00;;;14.80;98.20;;;;;;4983255;28;20499;-81
2021/09/17 00:24:12;;;;;;;1.50;1.00;;;14.80;98.20;;;;;;4970122;28;20549;-80
2021/09/17 00:26:38;;;;;;;1.50;1.00;;;14.80;98.20;;;;;;4978730;28;20857;-81
2021/09/17 00:29:05;;;;;;;1.57;1.07;;;14.90;98.20;;;;;;4974152;28;20466;-81
2021/09/17 00:31:34;;;;;;;1.53;1.00;;;14.90;98.20;;;;;;4982644;28;20473;-81
2021/09/17 00:34:01;;;;;;;1.50;1.03;;;14.90;98.20;;;;;;4975608;28;20474;-81
2021/09/17 00:36:27;;;;;;;1.57;1.00;;;14.90;98.20;;;;;;4963977;28;20470;-80
2021/09/17 00:38:54;;;;;;;1.57;1.00;;;14.90;98.20;;;;;;4974711;28;20478;-80
2021/09/17 00:41:21;;;;;;;1.50;1.00;;;15.00;98.20;;;;;;4975937;28;20473;-81
2021/09/17 00:43:48;;;;;;;1.50;0.90;;;15.00;98.20;;;;;;4987660;28;20513;-80
2021/09/17 00:46:14;;;;;;;1.50;1.00;;;15.00;98.20;;;;;;4974256;28;20557;-81
2021/09/17 00:48:42;;;;;;;1.50;1.00;;;15.10;98.20;;;;;;4976149;28;20497;-81
2021/09/17 00:51:10;;;;;;;1.50;1.00;;;15.10;98.20;;;;;;4985401;28;20468;-80
2021/09/17 00:53:36;;;;;;;1.50;1.00;;;15.10;98.20;;;;;;4976145;28;20466;-80
2021/09/17 00:56:04;;;;;;;1.50;1.00;;;15.20;98.20;;;;;;4973872;28;20474;-81
2021/09/17 00:58:31;;;;;;;1.50;0.97;;;15.20;98.20;;;;;;4978342;28;20493;-80
2021/09/17 01:00:58;;;;;;;1.50;1.00;;;15.20;98.20;;;;;;4976609;28;20815;-81
2021/09/17 01:03:25;;;;;;;1.57;1.00;;;15.30;98.20;;;;;;4976039;28;20497;-81
2021/09/17 01:05:53;;;;;;;1.50;1.00;;;15.30;98.20;;;;;;4977085;28;20832;-81
2021/09/17 01:08:20;;;;;;;1.53;1.00;;;15.30;98.20;;;;;;4978136;28;20497;-80
2021/09/17 01:10:48;;;;;;;1.50;1.00;;;15.30;98.20;;;;;;4980953;28;20469;-81
2021/09/17 01:13:17;;;;;;;1.53;1.00;;;15.30;98.20;;;;;;4979185;28;20521;-81
2021/09/17 01:15:43;;;;;;;1.50;1.10;;;15.30;98.20;;;;;;4975435;28;20473;-81
2021/09/17 01:18:10;;;;;;;1.50;1.00;;;15.30;98.20;;;;;;4981304;28;20496;-81
2021/09/17 01:20:37;;;;;;;1.50;0.90;;;15.40;98.20;;;;;;4987311;28;20652;-81
2021/09/17 01:23:05;;;;;;;1.50;0.90;;;15.40;98.20;;;;;;4977391;28;20493;-81
2021/09/17 01:25:32;;;;;;;1.57;1.10;;;15.40;98.20;;;;;;4975328;28;20622;-81
2021/09/17 01:27:58;;;;;;;1.53;1.00;;;15.40;98.20;;;;;;4985937;28;20485;-81
2021/09/17 01:30:25;;;;;;;1.50;1.00;;;15.40;98.20;;;;;;4992671;28;20470;-81
2021/09/17 01:32:52;;;;;;;1.53;1.00;;;15.40;98.20;;;;;;4976803;28;21008;-81
2021/09/17 01:35:22;;;;;;;1.50;1.00;;;15.40;98.20;;;;;;4974274;28;20467;-82
2021/09/17 01:37:50;;;;;;;1.50;1.00;;;15.40;98.20;;;;;;4977940;28;20500;-82
2021/09/17 01:40:19;;;;;;;1.50;1.00;;;15.50;98.20;;;;;;4969713;28;20474;-82
2021/09/17 01:42:47;;;;;;;1.50;0.90;;;15.50;98.20;;;;;;4960633;28;20490;-81
2021/09/17 01:45:15;;;;;;;1.53;1.00;;;15.50;98.20;;;;;;4959276;28;20472;-82
2021/09/17 01:47:42;;;;;;;1.50;1.00;;;15.50;98.20;;;;;;4964911;28;21031;-81
2021/09/17 01:50:09;;;;;;;1.57;1.00;;;15.50;98.20;;;;;;4963539;28;20459;-81
2021/09/17 01:52:36;;;;;;;1.50;1.00;;;15.50;98.20;;;;;;4963557;28;20474;-81
2021/09/17 01:55:04;;;;;;;1.50;1.00;;;15.50;98.20;;;;;;4968512;28;20472;-81
2021/09/17 01:57:33;;;;;;;1.50;1.00;;;15.60;98.20;;;;;;4964399;28;20493;-81
2021/09/17 01:59:59;;;;;;;1.50;0.90;;;15.60;98.20;;;;;;4975839;28;20461;-81
2021/09/17 02:02:27;;;;;;;1.50;1.00;;;15.60;98.20;;;;;;4990072;28;20860;-81
2021/09/17 02:04:54;;;;;;;1.57;1.00;;;15.60;98.20;;;;;;4989087;28;20553;-81
2021/09/17 02:07:21;;;;;;;1.50;0.97;;;15.60;98.20;;;;;;4975544;28;20897;-82
2021/09/17 02:09:48;;;;;;;1.50;0.90;;;15.60;98.20;;;;;;4982132;28;20476;-81
2021/09/17 02:12:15;;;;;;;1.53;1.00;;;15.60;98.20;;;;;;4973558;28;20458;-82
2021/09/17 02:14:43;;;;;;;1.50;1.00;;;15.60;98.20;;;;;;4976590;28;20466;-81
2021/09/17 02:17:10;;;;;;;1.53;1.00;;;15.60;98.20;;;;;;4967023;28;20490;-81
2021/09/17 02:19:37;;;;;;;1.57;1.10;;;15.60;98.20;;;;;;4973816;28;20480;-81
2021/09/17 02:22:04;;;;;;;1.50;1.10;;;15.70;98.20;;;;;;4975467;28;20469;-81
2021/09/17 02:24:30;;;;;;;1.50;1.00;;;15.70;98.20;;;;;;4984783;28;20854;-81
2021/09/17 02:26:57;;;;;;;1.50;1.00;;;15.70;98.20;;;;;;4993346;28;20496;-81
2021/09/17 02:29:24;;;;;;;1.57;1.00;;;15.70;98.20;;;;;;4987637;28;20468;-81
2021/09/17 02:31:52;;;;;;;1.50;1.00;;;15.70;98.20;;;;;;4994620;28;20503;-81
2021/09/17 02:34:19;;;;;;;1.50;1.00;;;15.70;98.20;;;;;;4980617;28;20785;-82
2021/09/17 02:36:46;;;;;;;1.50;0.90;;;15.70;98.20;;;;;;4975285;28;20477;-81
2021/09/17 02:39:15;;;;;;;1.50;0.90;;;15.70;98.20;;;;;;4978772;28;20479;-81
2021/09/17 02:41:42;;;;;;;1.53;1.00;;;15.70;98.20;;;;;;4993087;28;20499;-81
2021/09/17 02:44:10;;;;;;;1.53;1.00;;;15.70;98.20;;;;;;4975414;28;20489;-82
2021/09/17 02:46:37;;;;;;;1.60;1.10;;;15.70;98.20;;;;;;4975301;28;20470;-81
2021/09/17 02:49:05;;;;;;;1.53;1.00;;;15.70;98.20;;;;;;4969355;28;20465;-81
2021/09/17 02:51:32;;;;;;;1.50;1.00;;;15.70;98.20;;;;;;4994405;28;20464;-81
2021/09/17 02:54:00;;;;;;;1.50;1.00;;;15.70;98.20;;;;;;4974278;28;20467;-81
2021/09/17 02:56:27;;;;;;;1.50;1.00;;;15.70;98.20;;;;;;4975698;28;20467;-81
2021/09/17 02:58:54;;;;;;;1.50;1.00;;;15.70;98.20;;;;;;4975247;28;20484;-81
2021/09/17 03:01:21;;;;;;;1.53;1.00;;;15.70;98.20;;;;;;4980377;28;20564;-81
2021/09/17 03:03:47;;;;;;;1.53;1.00;;;15.70;98.20;;;;;;4977266;28;20497;-81
2021/09/17 03:06:16;;;;;;;1.53;1.00;;;15.70;98.20;;;;;;4971415;28;20466;-81
2021/09/17 03:08:42;;;;;;;1.50;0.90;;;15.70;98.20;;;;;;4972276;28;20862;-81
2021/09/17 03:11:09;;;;;;;1.50;1.00;;;15.70;98.20;;;;;;4975878;28;20478;-81
2021/09/17 03:13:36;;;;;;;1.50;1.00;;;15.70;98.20;;;;;;4979769;28;20472;-81
2021/09/17 03:16:06;;;;;;;1.50;1.00;;;15.70;98.20;;;;;;4983976;28;20488;-81
2021/09/17 03:18:34;;;;;;;1.50;1.00;;;15.70;98.20;;;;;;4978280;28;20522;-81
2021/09/17 03:21:01;;;;;;;1.50;1.00;;;15.70;98.20;;;;;;4977237;28;20984;-81
2021/09/17 03:23:29;;;;;;;1.50;1.00;;;15.70;98.20;;;;;;4986703;28;20481;-81
2021/09/17 03:25:56;;;;;;;1.50;1.00;;;15.70;98.20;;;;;;4986785;28;20511;-81
2021/09/17 03:28:22;;;;;;;1.73;1.40;;;15.70;98.20;;;;;;4975568;28;21012;-81
2021/09/17 03:30:49;;;;;;;1.50;1.00;;;15.80;98.20;;;;;;4975484;28;20465;-81
2021/09/17 03:33:16;;;;;;;1.53;1.00;;;15.80;98.20;;;;;;4980318;28;20472;-81
2021/09/17 03:35:44;;;;;;;1.60;1.00;;;15.80;98.20;;;;;;4978803;28;20457;-81
2021/09/17 03:38:11;;;;;;;1.50;1.00;;;15.80;98.20;;;;;;4972777;28;20909;-81
2021/09/17 03:40:40;;;;;;;1.50;1.00;;;15.80;98.20;;;;;;4981478;28;20847;-82
2021/09/17 03:43:07;;;;;;;1.53;1.00;;;15.80;98.20;;;;;;4996462;28;20500;-81
2021/09/17 03:45:36;;;;;;;1.50;0.93;;;15.80;98.20;;;;;;4978713;28;20485;-81
2021/09/17 03:48:06;;;;;;;1.50;1.00;;;15.80;98.20;;;;;;4972815;28;20544;-82
2021/09/17 03:50:33;;;;;;;1.50;1.00;;;15.80;98.20;;;;;;4973754;28;20528;-81
2021/09/17 03:53:00;;;;;;;1.57;1.00;;;15.80;98.20;;;;;;4973339;28;20468;-81
2021/09/17 03:55:27;;;;;;;1.57;1.00;;;15.80;98.20;;;;;;4972068;28;20662;-81
2021/09/17 03:57:56;;;;;;;1.50;1.00;;;15.80;98.20;;;;;;4967787;28;20481;-81
2021/09/17 04:00:24;;;;;;;1.50;1.00;;;15.80;98.20;;;;;;4991891;28;20467;-81
2021/09/17 04:02:51;;;;;;;1.50;1.00;;;15.80;98.20;;;;;;4972193;28;20509;-81
2021/09/17 04:05:18;;;;;;;1.50;1.00;;;15.90;98.20;;;;;;4972315;28;20481;-81
2021/09/17 04:07:45;;;;;;;1.50;1.00;;;15.80;98.20;;;;;;4966581;28;20482;-82
2021/09/17 04:10:13;;;;;;;1.50;0.90;;;15.90;98.20;;;;;;4971272;28;20896;-82
2021/09/17 04:12:40;;;;;;;1.50;0.97;;;15.90;98.20;;;;;;4968427;28;20477;-81
2021/09/17 04:15:10;;;;;;;1.50;1.00;;;15.90;98.20;;;;;;4965647;28;20457;-82
2021/09/17 04:17:36;;;;;;;1.50;0.90;;;15.90;98.20;;;;;;4969988;28;20843;-82
2021/09/17 04:20:04;;;;;;;1.50;1.00;;;15.90;98.20;;;;;;4971153;28;20481;-82
2021/09/17 04:22:31;;;;;;;1.53;1.00;;;15.90;98.20;;;;;;4970966;28;20976;-82
2021/09/17 04:24:58;;;;;;;1.50;0.90;;;15.90;98.20;;;;;;4971382;28;20490;-82
2021/09/17 04:27:25;;;;;;;1.50;1.00;;;15.90;98.20;;;;;;4970801;28;20505;-82
2021/09/17 04:29:52;;;;;;;1.50;1.00;;;15.90;98.20;;;;;;4978151;28;20474;-81
2021/09/17 04:32:20;;;;;;;1.50;0.97;;;15.90;98.20;;;;;;4987399;28;20557;-82
2021/09/17 04:34:48;;;;;;;1.50;0.90;;;15.90;98.20;;;;;;4997637;28;21056;-81
2021/09/17 04:37:17;;;;;;;1.50;0.90;;;15.90;98.20;;;;;;4981777;28;20503;-81
2021/09/17 04:39:45;;;;;;;1.53;1.00;;;15.90;98.20;;;;;;4986254;28;20466;-82
2021/09/17 04:42:12;;;;;;;1.57;1.00;;;15.90;98.20;;;;;;4985807;28;20442;-83
2021/09/17 04:44:40;;;;;;;1.53;1.00;;;15.90;98.20;;;;;;4990091;28;20488;-83
2021/09/17 04:47:07;;;;;;;1.60;1.10;;;15.90;98.20;;;;;;4977541;28;20493;-83
2021/09/17 04:49:36;;;;;;;1.50;1.00;;;15.90;98.20;;;;;;4976140;28;20477;-83
2021/09/17 04:52:03;;;;;;;1.50;1.00;;;15.80;98.20;;;;;;4977080;28;20485;-84
2021/09/17 04:54:30;;;;;;;1.53;1.00;;;15.80;98.20;;;;;;4975951;28;20678;-83
2021/09/17 04:56:57;;;;;;;1.50;1.00;;;15.80;98.20;;;;;;4973826;28;20671;-84
2021/09/17 04:59:24;;;;;;;1.50;1.00;;;15.80;98.20;;;;;;4975145;28;20480;-84
2021/09/17 05:01:51;;;;;;;1.50;1.00;;;15.80;98.20;;;;;;4972749;28;20552;-83
2021/09/17 05:04:17;;;;;;;1.50;1.00;;;15.80;98.20;;;;;;4965565;28;20499;-84
2021/09/17 05:06:46;;;;;;;1.50;0.90;;;15.80;98.20;;;;;;4969319;28;20489;-83
2021/09/17 05:09:12;;;;;;;1.50;0.93;;;15.80;98.20;;;;;;4971699;28;20465;-83
2021/09/17 05:11:39;;;;;;;1.50;1.00;;;15.80;98.20;;;;;;4975755;28;20819;-82
2021/09/17 05:14:06;;;;;;;1.50;1.00;;;15.90;98.20;;;;;;4983860;28;20477;-82
2021/09/17 05:16:33;;;;;;;1.50;1.00;;;15.90;98.20;;;;;;4987894;28;20475;-82
2021/09/17 05:19:00;;;;;;;1.53;1.00;;;15.90;98.20;;;;;;4971141;28;20478;-82
2021/09/17 05:21:27;;;;;;;1.50;1.00;;;15.90;98.20;;;;;;4977497;28;20469;-82
2021/09/17 05:23:55;;;;;;;1.60;1.20;;;15.90;98.20;;;;;;4970545;28;20486;-82
2021/09/17 05:26:22;;;;;;;1.53;1.00;;;15.90;98.20;;;;;;4971995;28;20474;-82
2021/09/17 05:28:49;;;;;;;1.60;1.10;;;15.90;98.20;;;;;;4979490;28;20490;-82
2021/09/17 05:31:16;;;;;;;1.50;1.00;;;15.90;98.20;;;;;;4973615;28;20467;-82
2021/09/17 05:33:43;;;;;;;1.50;0.90;;;15.90;98.20;;;;;;4965362;28;20458;-82
2021/09/17 05:36:09;;;;;;;1.60;1.00;;;15.90;98.20;;;;;;4966197;28;20463;-82
2021/09/17 05:38:36;;;;;;;1.50;1.00;;;15.90;98.20;;;;;;4966893;28;20498;-82
2021/09/17 05:41:05;;;;;;;1.57;1.00;;;15.90;98.20;;;;;;4961800;28;20616;-82
2021/09/17 05:43:31;;;;;;;1.50;0.90;;;15.90;98.20;;;;;;4964835;28;21208;-81
2021/09/17 05:45:58;;;;;;;1.50;1.00;;;15.90;98.20;;;;;;4963282;28;21119;-81
2021/09/17 05:48:25;;;;;;;1.50;1.00;;;15.90;98.20;;;;;;4961054;28;20600;-82
2021/09/17 05:50:52;;;;;;;1.50;1.00;;;15.90;98.20;;;;;;4972744;28;20474;-82
2021/09/17 05:53:19;;;;;;;1.50;1.00;;;16.00;98.20;;;;;;4965111;28;21020;-82
2021/09/17 05:55:46;;;;;;;1.50;1.00;;;16.00;98.20;;;;;;4970582;28;20507;-82
2021/09/17 05:58:14;;;;;;;1.50;1.00;;;16.00;98.20;;;;;;4964521;28;20651;-81
2021/09/17 06:00:41;;;;;;;1.50;0.93;;;16.00;98.20;;;;;;4963164;28;21066;-81
2021/09/17 06:03:07;;;;;;;1.50;1.00;;;16.00;98.20;;;;;;4962706;28;21154;-82
2021/09/17 06:05:34;;;;;;;1.50;1.00;;;16.10;98.20;;;;;;4970318;28;20466;-81
2021/09/17 06:08:01;;;;;;;1.50;1.00;;;16.10;98.20;;;;;;4963916;28;20493;-82
2021/09/17 06:10:28;;;;;;;1.50;0.97;;;16.10;98.20;;;;;;4967166;28;20465;-82
2021/09/17 06:12:55;;;;;;;1.50;1.00;;;16.10;98.20;;;;;;4968749;28;21286;-82
2021/09/17 06:15:23;;;;;;;1.57;1.00;;;16.10;98.20;;;;;;4968306;28;20504;-82
2021/09/17 06:17:50;;;;;;;1.50;1.00;;;16.10;98.20;;;;;;4968506;28;20614;-82
2021/09/17 06:20:17;;;;;;;1.50;1.00;;;16.10;98.20;;;;;;4969669;28;20468;-81
2021/09/17 06:22:45;;;;;;;1.57;1.00;;;16.10;98.20;;;;;;4967054;28;20470;-81
2021/09/17 06:25:14;;;;;;;1.57;1.00;;;16.10;98.20;;;;;;4964039;28;20493;-82
2021/09/17 06:27:41;;;;;;;1.50;0.93;;;16.10;98.20;;;;;;4974960;28;20494;-82
2021/09/17 06:30:09;;;;;;;1.50;1.00;;;16.20;98.20;;;;;;4971094;28;20477;-81
2021/09/17 06:32:37;;;;;;;1.50;1.00;;;16.20;98.20;;;;;;4974174;28;21028;-82
2021/09/17 06:35:05;;;;;;;1.50;1.00;;;16.20;98.20;;;;;;4969952;28;20461;-82
2021/09/17 06:37:31;;;;;;;1.53;1.00;;;16.10;98.20;;;;;;4971263;28;20502;-81
2021/09/17 06:39:58;;;;;;;1.50;0.90;;;16.10;98.20;;;;;;4974939;28;20536;-82
2021/09/17 06:42:25;;;;;;;1.57;0.90;;;16.20;98.20;;;;;;4972325;28;20504;-81
2021/09/17 06:44:52;;;;;;;1.50;1.00;;;16.20;98.20;;;;;;4975116;28;20484;-81
2021/09/17 06:47:19;;;;;;;1.50;1.00;;;16.20;98.20;;;;;;4970268;28;20486;-81
2021/09/17 06:49:47;;;;;;;1.50;1.00;;;16.20;98.20;;;;;;4970488;28;20470;-81
2021/09/17 06:52:14;;;;;;;1.50;0.90;;;16.30;98.20;;;;;;4970342;28;20504;-81
2021/09/17 06:54:40;;;;;;;1.50;1.00;;;16.30;98.20;;;;;;4977348;28;20468;-82
2021/09/17 06:57:07;;;;;;;1.50;1.00;;;16.30;98.20;;;;;;4973011;28;20489;-82
2021/09/17 06:59:34;;;;;;;1.60;1.00;;;16.30;98.20;;;;;;4980548;28;21170;-82
2021/09/17 07:02:01;;;;;;;1.50;1.00;;;16.40;98.20;;;;;;4972440;28;20465;-82
2021/09/17 07:04:27;;;;;;;1.50;1.00;;;16.40;98.20;;;;;;4979472;28;20490;-82
2021/09/17 07:06:56;;;;;;;1.57;1.00;;;16.40;98.20;;;;;;4970910;28;20490;-82
2021/09/17 07:09:23;;;;;;;1.53;0.90;;;16.50;98.20;;;;;;4967584;28;20506;-82
2021/09/17 07:11:50;;;;;;;1.50;1.00;;;16.50;98.20;;;;;;4973204;28;20465;-82
2021/09/17 07:14:17;;;;;;;1.53;1.00;;;16.50;98.20;;;;;;4993158;28;20457;-82
2021/09/17 07:16:43;;;;;;;1.50;1.00;;;16.50;98.20;;;;;;4979731;28;20488;-82
2021/09/17 07:19:10;;;;;;;1.53;0.90;;;16.60;98.20;;;;;;4973940;28;20587;-82
2021/09/17 07:21:37;;;;;;;1.50;1.00;;;16.60;98.20;;;;;;4972878;28;21050;-82
2021/09/17 07:24:06;;;;;;;1.53;1.00;;;16.60;98.20;;;;;;4979321;28;20493;-82
2021/09/17 07:26:32;;;;;;;1.50;0.90;;;16.70;98.20;;;;;;4981870;28;20827;-82
2021/09/17 07:28:59;;;;;;;1.50;1.00;;;16.70;98.20;;;;;;4992585;28;20464;-81
2021/09/17 07:31:26;;;;;;;1.53;1.00;;;16.70;98.20;;;;;;4976952;28;20965;-81
2021/09/17 07:33:53;;;;;;;1.50;0.97;;;16.70;98.20;;;;;;4988190;28;20473;-82
2021/09/17 07:36:19;;;;;;;1.50;1.00;;;16.80;98.20;;;;;;4973327;28;20480;-81
2021/09/17 07:38:46;;;;;;;1.50;0.97;;;16.80;98.20;;;;;;4962345;28;20494;-81
2021/09/17 07:41:14;;;;;;;1.50;0.90;;;16.90;98.20;;;;;;4974272;28;20512;-81
2021/09/17 07:43:41;;;;;;;1.57;1.00;;;16.90;98.20;;;;;;4978983;28;20474;-82
2021/09/17 07:46:09;;;;;;;1.50;0.90;;;16.90;98.20;;;;;;4971373;28;21011;-81
2021/09/17 07:48:35;;;;;;;1.50;1.00;;;17.00;98.20;;;;;;4963828;28;20487;-81
2021/09/17 07:51:05;;;;;;;1.53;0.90;;;17.00;98.20;;;;;;4967199;28;20477;-81
2021/09/17 07:53:32;;;;;;;1.57;1.00;;;17.00;98.20;;;;;;4973405;28;20458;-82
2021/09/17 07:55:58;;;;;;;1.57;1.00;;;17.10;98.20;;;;;;4977806;28;20462;-81
2021/09/17 07:58:27;;;;;;;1.60;1.00;;;17.10;98.20;;;;;;4976812;28;20489;-81
2021/09/17 08:00:54;;;;;;;1.53;1.00;;;17.20;98.20;;;;;;4975593;28;20666;-82
2021/09/17 08:03:21;;;;;;;1.50;1.00;;;17.20;98.20;;;;;;4980546;28;20845;-82
2021/09/17 08:05:53;;;;;;;1.50;0.90;;;17.30;98.20;;;;;;4970016;28;21168;-82
2021/09/17 08:08:20;;;;;;;1.50;1.00;;;17.40;98.20;;;;;;4977450;28;20489;-81
2021/09/17 08:10:47;;;;;;;1.50;1.00;;;17.40;98.20;;;;;;4969864;28;20585;-82
2021/09/17 08:13:14;;;;;;;1.50;0.90;;;17.50;98.20;;;;;;4968413;28;20466;-82
2021/09/17 08:15:42;;;;;;;1.57;0.90;;;17.50;98.20;;;;;;4964505;28;20466;-83
2021/09/17 08:18:09;;;;;;;1.50;0.90;;;17.60;98.20;;;;;;4969170;28;20486;-83
2021/09/17 08:20:37;;;;;;;1.57;0.90;;;17.60;98.20;;;;;;4974862;28;20465;-83
2021/09/17 08:23:04;;;;;;;1.53;1.00;;;17.70;98.20;;;;;;4980867;28;21008;-83
2021/09/17 08:25:31;;;;;;;1.87;1.40;;;17.80;98.20;;;;;;4969554;28;21207;-83
2021/09/17 08:27:57;;;;;;;1.50;0.90;;;17.80;98.20;;;;;;4980850;28;20487;-83
2021/09/17 08:30:24;;;;;;;1.53;0.90;;;17.90;98.20;;;;;;4979177;28;20945;-82
2021/09/17 08:32:52;;;;;;;1.53;0.90;;;17.90;98.20;;;;;;4987688;28;20477;-82
2021/09/17 08:35:19;;;;;;;1.50;0.90;;;18.00;98.20;;;;;;5038745;23;20518;-80
2021/09/17 08:37:46;;;;;;;1.53;0.90;;;18.10;98.20;;;;;;5037114;28;20772;-79
2021/09/17 08:40:13;;;;;;;1.53;0.90;;;18.10;98.20;;;;;;5032074;28;20470;-80
2021/09/17 08:42:42;;;;;;;1.53;0.97;;;18.20;98.20;;;;;;5031154;28;20467;-81
2021/09/17 08:45:09;;;;;;;1.60;1.10;;;18.30;98.20;;;;;;5011732;28;20484;-82
2021/09/17 08:47:36;;;;;;;1.57;1.00;;;18.30;98.20;;;;;;5007045;28;20475;-82
2021/09/17 08:50:05;;;;;;;1.53;1.00;;;18.40;98.20;;;;;;5005058;28;20468;-82
2021/09/17 08:52:32;;;;;;;1.53;0.90;;;18.40;98.20;;;;;;5009520;28;20816;-83
2021/09/17 08:55:02;;;;;;;1.53;0.90;;;18.50;98.20;;;;;;5015108;28;21010;-79
2021/09/17 08:57:29;;;;;;;1.60;1.00;;;18.50;98.20;;;;;;5011078;28;20834;-81
2021/09/17 08:59:56;;;;;;;1.53;1.00;;;18.50;98.20;;;;;;5016244;28;20460;-81
2021/09/17 09:02:24;;;;;;;1.50;0.90;;;18.50;98.20;;;;;;5017949;28;20476;-80
2021/09/17 09:05:07;;;;;;;1.50;0.97;;;18.60;98.20;;;;;;5007335;28;20525;-78
2021/09/17 09:07:36;;;;;;;1.50;0.90;;;18.60;98.20;;;;;;5008197;28;20464;-79
2021/09/17 09:10:11;;;;;;;1.50;0.90;;;18.60;98.20;;;;;;5010276;28;20473;-78
2021/09/17 09:12:44;;;;;;;1.50;0.90;;;18.60;98.20;;;;;;5011035;28;20839;-80
2021/09/17 09:15:16;;;;;;;1.60;1.10;;;18.60;98.20;;;;;;5011586;28;21021;-78
2021/09/17 09:17:43;;;;;;;1.50;0.90;;;18.60;98.20;;;;;;5012475;28;20740;-79
2021/09/17 09:20:30;;;;;;;1.53;0.93;;;18.70;98.20;;;;;;5012818;28;20464;-79
2021/09/17 09:23:06;;;;;;;1.53;1.00;;;18.80;98.20;;;;;;5011738;28;20495;-78
2021/09/17 09:25:33;;;;;;;1.50;0.90;;;18.90;98.20;;;;;;5010102;28;20515;-79
2021/09/17 09:28:14;;;;;;;1.50;0.90;;;19.00;98.20;;;;;;5013622;28;20492;-80
2021/09/17 09:30:43;;;;;;;1.53;1.00;;;19.20;98.20;;;;;;5013306;28;20464;-79
2021/09/17 09:33:25;;;;;;;1.53;0.90;;;19.30;98.20;;;;;;5008634;28;21015;-79
2021/09/17 09:36:05;;;;;;;1.53;1.00;;;19.40;98.20;;;;;;5013123;28;20468;-79
2021/09/17 09:38:39;;;;;;;1.57;0.90;;;19.50;98.20;;;;;;5005813;28;20455;-79
2021/09/17 09:41:07;;;;;;;1.60;1.00;;;19.60;98.20;;;;;;5015056;28;20491;-79
2021/09/17 09:43:35;;;;;;;1.60;1.00;;;19.80;98.20;;;;;;5015866;28;20562;-79
2021/09/17 09:46:30;;;;;;;1.50;0.90;;;20.00;98.20;;;;;;5014842;28;20488;-79
2021/09/17 09:49:18;;;;;;;1.60;1.10;;;20.20;98.20;;;;;;4998012;28;20456;-79
2021/09/17 09:52:01;;;;;;;1.60;1.00;;;20.40;98.20;;;;;;5014225;28;20616;-80
2021/09/17 09:54:31;;;;;;;1.60;1.03;;;20.60;98.20;;;;;;5020385;28;20626;-78
2021/09/17 09:57:00;;;;;;;1.50;0.90;;;20.70;97.80;;;;;;5015639;28;20566;-80
2021/09/17 09:59:29;;;;;;;1.57;0.90;;;20.80;97.80;;;;;;5017612;28;20463;-78
2021/09/17 10:01:57;;;;;;;1.53;0.90;;;21.00;97.30;;;;;;5014472;28;20460;-79
2021/09/17 10:04:31;;;;;;;1.50;0.90;;;21.10;96.40;;;;;;5019658;28;20703;-77
2021/09/17 10:07:08;;;;;;;1.53;0.90;;;21.20;95.50;;;;;;5010052;28;20757;-80
2021/09/17 10:09:41;;;;;;;1.50;0.90;;;21.20;95.10;;;;;;5011739;28;20476;-79
2021/09/17 10:12:13;;;;;;;1.53;0.90;;;21.40;95.20;;;;;;5019620;28;20487;-80
2021/09/17 10:14:48;;;;;;;1.50;0.90;;;21.50;95.40;;;;;;5019624;28;20564;-79
2021/09/17 10:17:20;;;;;;;1.50;0.90;;;21.50;94.90;;;;;;5017373;28;20795;-79
2021/09/17 10:19:52;;;;;;;1.60;1.20;;;21.60;94.00;;;;;;5019100;28;20490;-80
2021/09/17 10:22:36;;;;;;;1.50;0.90;;;21.60;93.90;;;;;;5023032;28;20886;-79
2021/09/17 10:25:15;;;;;;;2.27;1.47;;;21.70;94.10;;;;;;5021458;28;21050;-78
2021/09/17 10:27:47;;;;;;;1.50;0.90;;;21.90;92.70;;;;;;5008997;28;20484;-79
2021/09/17 10:30:16;;;;;;;1.53;0.90;;;22.10;91.70;;;;;;5017542;28;20468;-78
2021/09/17 10:32:50;;;;;;;1.50;0.90;;;22.20;91.70;;;;;;5018491;28;20471;-78
2021/09/17 10:35:23;;;;;;;1.50;0.90;;;22.30;92.40;;;;;;5013446;28;20684;-78
2021/09/17 10:38:10;;;;;;;1.50;0.90;;;22.40;91.60;;;;;;5017974;28;20460;-79
2021/09/17 10:40:53;;;;;;;1.50;0.90;;;22.40;91.20;;;;;;5021034;28;20490;-79
2021/09/17 10:43:36;;;;;;;1.50;0.87;;;22.40;91.60;;;;;;5023651;28;20464;-78
2021/09/17 10:46:29;;;;;;;1.50;0.90;;;22.40;90.50;;;;;;5019757;28;20479;-78
2021/09/17 10:48:58;;;;;;;1.50;0.90;;;22.50;91.40;;;;;;5017735;28;20467;-79
2021/09/17 10:51:34;;;;;;;1.50;0.90;;;22.50;91.60;;;;;;5019564;28;20515;-79
2021/09/17 10:54:25;;;;;;;1.50;0.90;;;22.50;91.00;;;;;;5013581;28;20681;-79
2021/09/17 10:57:05;;;;;;;1.50;0.90;;;22.50;91.80;;;;;;5013936;28;20535;-78
2021/09/17 10:59:52;;;;;;;1.50;0.87;;;22.50;91.30;;;;;;5013877;28;20491;-79
2021/09/17 11:02:21;;;;;;;1.50;0.90;;;22.50;91.20;;;;;;5014306;28;20925;-79
2021/09/17 11:04:50;;;;;;;1.50;0.90;;;22.50;90.70;;;;;;5014927;28;20495;-78
2021/09/17 11:07:36;;;;;;;1.50;0.90;;;22.50;92.20;;;;;;5016181;28;20464;-79
2021/09/17 11:10:23;;;;;;;1.50;0.90;;;22.60;92.00;;;;;;5019606;28;20492;-79
2021/09/17 11:13:04;;;;;;;1.50;0.90;;;22.70;92.20;;;;;;5020450;28;20496;-79
2021/09/17 11:15:31;;;;;;;1.50;0.90;;;22.80;91.80;;;;;;5008894;28;20520;-79
2021/09/17 11:18:01;;;;;;;1.60;1.00;;;22.80;91.50;;;;;;5017269;28;20476;-78
2021/09/17 11:20:38;;;;;;;1.50;0.90;;;22.80;89.80;;;;;;5016691;28;20471;-78
2021/09/17 11:23:11;;;;;;;1.60;1.10;;;22.80;91.40;;;;;;5020186;28;20518;-79
2021/09/17 11:25:41;;;;;;;1.70;1.30;;;22.90;92.50;;;;;;5014908;28;20491;-79
2021/09/17 11:28:28;;;;;;;1.50;0.80;;;23.00;90.90;;;;;;5019355;28;20468;-79
2021/09/17 11:31:09;;;;;;;1.50;0.87;;;23.20;91.10;;;;;;5000733;28;20595;-79
2021/09/17 11:33:35;;;;;;;1.50;0.90;;;23.10;90.20;;;;;;5004721;28;20484;-79
2021/09/17 11:36:02;;;;;;;1.50;0.90;;;23.10;90.30;;;;;;5012079;28;20555;-79
2021/09/17 11:38:31;;;;;;;1.50;0.90;;;23.20;91.00;;;;;;5014760;28;20503;-79
2021/09/17 11:41:01;;;;;;;1.50;0.90;;;23.30;90.20;;;;;;5011080;28;20468;-78
2021/09/17 11:43:28;;;;;;;1.50;0.90;;;23.40;91.00;;;;;;5021836;28;20476;-80
2021/09/17 11:45:56;;;;;;;1.50;0.80;;;23.50;90.40;;;;;;5016364;28;20985;-80
2021/09/17 11:48:25;;;;;;;1.50;0.90;;;23.60;89.10;;;;;;5012528;28;20460;-79
2021/09/17 11:50:59;;;;;;;1.57;1.07;;;23.60;89.30;;;;;;5014500;28;20460;-79
2021/09/17 11:53:28;;;;;;;1.50;0.90;;;23.50;88.40;;;;;;5018808;28;20490;-79
2021/09/17 11:55:55;;;;;;;1.50;0.90;;;23.40;89.50;;;;;;5023251;28;20496;-78
2021/09/17 11:58:26;;;;;;;1.50;0.90;;;23.40;89.60;;;;;;5016160;28;20472;-79
2021/09/17 12:00:53;;;;;;;1.50;0.90;;;23.30;89.50;;;;;;5016713;28;20873;-78
2021/09/17 12:03:23;;;;;;;1.50;0.87;;;23.20;90.50;;;;;;5016341;28;20973;-79
2021/09/17 12:05:54;;;;;;;1.50;0.90;;;23.20;90.90;;;;;;5013112;28;20515;-78
2021/09/17 12:08:21;;;;;;;1.50;0.90;;;23.10;90.30;;;;;;5014906;28;21020;-78
2021/09/17 12:11:00;;;;;;;1.50;0.90;;;23.00;91.60;;;;;;5008474;28;20464;-78
2021/09/17 12:13:32;;;;;;;1.50;0.90;;;23.00;91.20;;;;;;5010277;28;20465;-78
2021/09/17 12:15:59;;;;;;;1.50;0.90;;;23.00;91.00;;;;;;5007577;28;20483;-78
2021/09/17 12:18:26;;;;;;;1.50;0.97;;;23.00;91.20;;;;;;5010171;28;20532;-78
2021/09/17 12:20:56;;;;;;;1.50;0.90;;;23.00;90.90;;;;;;5016648;28;20500;-78
2021/09/17 12:23:33;;;;;;;1.50;0.90;;;23.00;91.50;;;;;;5010938;28;20468;-79
2021/09/17 12:26:07;;;;;;;1.50;0.90;;;23.00;91.90;;;;;;5006243;28;20718;-78
2021/09/17 12:28:36;;;;;;;1.50;0.90;;;23.00;92.10;;;;;;5014325;28;20464;-80
2021/09/17 12:31:04;;;;;;;1.50;0.90;;;23.00;91.50;;;;;;5003203;28;20481;-81
2021/09/17 12:33:35;;;;;;;1.50;0.90;;;23.00;90.90;;;;;;5015673;28;20863;-79
2021/09/17 12:36:14;;;;;;;1.50;0.90;;;22.90;91.30;;;;;;5008146;28;20519;-80
2021/09/17 12:38:45;;;;;;;1.50;0.90;;;22.80;91.70;;;;;;5012503;28;20464;-81
2021/09/17 12:41:16;;;;;;;1.50;0.90;;;22.80;91.70;;;;;;5005791;28;20484;-79
2021/09/17 12:44:14;;;;;;;2.03;1.83;;;22.80;90.70;;;;;;5012826;28;20484;-80
2021/09/17 12:46:42;;;;;;;1.50;0.87;;;22.80;91.30;;;;;;5007138;28;20588;-80
2021/09/17 12:49:20;;;;;;;1.50;0.90;;;22.80;90.40;;;;;;5015094;28;20488;-79
2021/09/17 12:52:13;;;;;;;1.50;0.90;;;22.80;91.30;;;;;;5006165;28;20535;-79
2021/09/17 12:55:02;;;;;;;1.50;0.90;;;22.80;90.20;;;;;;4998399;28;20543;-79
2021/09/17 12:57:31;;;;;;;1.50;0.90;;;22.80;90.80;;;;;;4984445;28;20571;-78
2021/09/17 13:00:02;;;;;;;1.50;0.87;;;22.80;91.50;;;;;;5013542;28;20467;-78